Kholm, Russia
Current Conditions -  °F | °C
As of 11:30 AM on Saturday 25 Oct 2014 (Local Time) from ULOO Reporting Station
Clear Clear  
Wind Chill: 20°   Ceiling: Unl
Heat Index: 28°   Visibility: 4mi
Dew Point: 21°   Wind: 9mph
Humidity: 74%   Direction: 180°S
Pressure: 30.48"   Gusts: NA
Location:  57.15°N, 31.18°E
Report Text: ULOO 250830Z 18004MPS P6000 NSC M02/M06 Q1032 19090070 NOSIGRMK QFE770
Loading
Personal Weather Stations






























Interactive Weather Map
Tropical Storm Tracking
New forecast layout! Learn more

10-Day Weather Forecast

Advertisements
Track Severe Weather on mobile